x

Grays Reef - 40 Nm Southeast Of Savannah, Ga (41008) Wave Buoy

6:50pm - Thu 26th Feb 2015 All times are EST. -5 hours from GMT.

  • Sig Wave height 2.3ft
  • Swell Direction
  • Peak Period 11s
  • Average Period 4s
  • Wind
    11mph, 13mph gusts
  • Sea Temp 52°f
  • Air Temp 48°f
  • Sea Pressure 1017.1mb
  • Grays Reef - 40 Nm Southeast Of Savannah, Ga
  • Grays Reef - 40 Nm Southeast Of Savannah, Ga

More Historic Weather Station data

Upgrade to MSW Pro to gain access to the past 30 days of data for over 8000 Wavebouys and Weather Stations around the globe.

Join Pro

Comparision Forecast

View Surf forecast
   
Thu 02/26 6:50pm 2.5ft 11s 4s 11 13 mph 1017.1mb 52f 48f
5:50pm 2.5ft 7s 4s 13 20 mph 1015.4mb 53f 48f
4:50pm 2.5ft 8s 4s 11 16 mph 1014.7mb 53f 47f
3:50pm 3ft 12s 5s 11 13 mph 1014mb 53f 46f
2:50pm 3.5ft 8s 5s 13 16 mph 1013.2mb 53f 46f
1:50pm 3.5ft 7s 5s 13 18 mph 1012.8mb 53f 45f
12:50pm 4ft 8s 5s 13 16 mph 1012.7mb 53f 44f
11:50am 4ft 8s 5s 16 20 mph 1012.2mb 53f 44f
10:50am 4.5ft 8s 5s 20 25 mph 1011.3mb 52f 44f
9:50am 5ft 8s 5s 20 25 mph 1010.6mb 53f 44f
8:50am 4.5ft 8s 5s 22 29 mph 1009.4mb 53f 44f
7:50am 5.5ft 8s 5s 22 27 mph 1007.7mb 53f 44f
6:50am 5ft 8s 5s 25 31 mph 1005.9mb 53f 46f
5:50am 5.5ft 8s 5s 25 29 mph 1004.3mb 53f 49f
4:50am 6ft 7s 6s 13 16 mph 1002.1mb 53f 56f
3:50am 7ft 6s 5s 18 20 mph 1000.2mb 53f 57f
2:50am 5ft 5s 5s 18 22 mph 1000mb 53f 58f
1:50am 4.5ft 4s 4s 29 38 mph 998.8mb 54f 60f
12:50am 4ft 6s 5s 20 25 mph 999.9mb 54f 59f
Wed 02/25 11:50pm 4.5ft 6s 5s 11 13 mph 1002mb 53f 58f
10:50pm 4.5ft 5s 5s 13 16 mph 1003mb 53f 53f
9:50pm 3.5ft 11s 4s 16 20 mph 1004.2mb 53f 52f
8:50pm 3ft 10s 4s 20 25 mph 1005.2mb 52f 51f
7:50pm 3ft 11s 5s 13 16 mph 1006.9mb 52f 52f
6:50pm 2.5ft 11s 5s 7 11 mph 1007.9mb 52f 53f
5:50pm 2.5ft 11s 5s 18 20 mph 1007.8mb 52f 51f
4:50pm 2.5ft 11s 4s 16 18 mph 1009.2mb 53f 49f
3:50pm 2.5ft 11s 5s 13 18 mph 1010.7mb 53f 48f
2:50pm 2.5ft 12s 6s 13 16 mph 1012mb 53f 47f
1:50pm 2.5ft 11s 6s 11 13 mph 1013.3mb 53f 47f
12:50pm 2.5ft 11s 6s 9 11 mph 1014.2mb 53f 46f
11:50am 2.5ft 11s 6s 7 9 mph 1015.4mb 53f 46f
10:50am 3ft 10s 6s 2 4 mph 1016.4mb 52f 46f
9:50am 3ft 10s 6s 4 7 mph 1016.5mb 52f 45f
8:50am 3ft 10s 6s 7 11 mph 1016.4mb 52f 44f
7:50am 3ft 10s 5s 9 11 mph 1015.8mb 51f 44f
6:50am 3ft 10s 5s 9
mph
1015.7mb 52f 44f
5:50am 2.5ft 11s 6s 11 13 mph 1014.8mb 52f 44f
4:50am 3ft 11s 6s 13 16 mph 1015.1mb 52f 45f
3:50am 2.5ft 11s 5s 9 11 mph 1014.9mb 52f 44f
2:50am 3ft 11s 6s 13 16 mph 1014.4mb 53f 44f
1:50am 3.5ft 11s 6s 11 13 mph 1015mb 53f 44f
12:50am 4ft 10s 6s 7 11 mph 1015.1mb 53f 44f
Tue 02/24 11:50pm 3.5ft 11s 6s 7 9 mph 1015.2mb 53f 44f
10:50pm 4.5ft 10s 6s 7 9 mph 1015.7mb 53f 43f
9:50pm 4.5ft 6s 6s 7 11 mph 1015.6mb 52f 42f
8:50pm 5ft 7s 5s 13 16 mph 1015.6mb 52f 42f
7:50pm 5ft 11s 5s 13 16 mph 1015.6mb 52f 42f
6:50pm 5ft 10s 6s 13 18 mph 1015.5mb 52f 42f
5:50pm 5ft 7s 5s 13 16 mph 1015.3mb 52f 42f
4:50pm 5ft 6s 5s 16 20 mph 1014.9mb 52f 42f
3:50pm 6ft 6s 5s 18 20 mph 1015mb 53f 42f
2:50pm 6ft 7s 5s 20 22 mph 1014.7mb 53f 43f
1:50pm 7ft 6s 5s 22 27 mph 1014.7mb 53f 43f
12:50pm 6.5ft 6s 5s 34 40 mph 1014mb 53f 47f
11:50am 6ft 10s 5s 25 31 mph 1015.4mb 53f 49f
10:50am 5.5ft 6s 5s 20 22 mph 1016.6mb 53f 51f
9:50am 5.5ft 5s 5s 18 22 mph 1017.4mb 53f 52f
8:50am 5.5ft 8s 5s 20 25 mph 1017.5mb 53f 52f
7:50am 5.5ft 10s 5s 18 22 mph 1018.3mb 53f 52f
6:50am 5.5ft 8s 5s 18 22 mph 1017.9mb 53f 52f
5:50am 5.5ft 8s 5s 18 22 mph 1018.2mb 53f 53f
4:50am 5.5ft 8s 5s 20 22 mph 1019mb 53f 51f
3:50am 5.5ft 7s 5s 20 25 mph 1018.9mb 54f 51f
2:50am 5.5ft 7s 5s 13 18 mph 1019.1mb 54f 54f
1:50am 5ft 7s 5s 16 20 mph 1019.7mb 54f 54f
12:50am 5.5ft 6s 5s 18 22 mph 1020.5mb 53f 53f
Mon 02/23 11:50pm 5.5ft 6s 5s 25 29 mph 1020.4mb 53f 52f
10:50pm 5.5ft 5s 5s 22 27 mph 1021.7mb 53f 51f
9:50pm 5ft 5s 4s 22 27 mph 1022.2mb 53f 51f
8:50pm 4ft 4s 4s 22 29 mph 1022.3mb 53f 51f
7:50pm 3ft 10s 4s 22 27 mph 1021.9mb 53f 52f
6:50pm 2ft 9s 7s 20 25 mph 1021.1mb 53f 54f
5:50pm 2.5ft 10s 7s 7
mph
1020.1mb 53f 56f
4:50pm 1.6ft 8s 6s 7 9 mph 1019.5mb 53f 56f
3:50pm 2ft 9s 6s 7 9 mph 1019.4mb 53f 56f
2:50pm 2ft 8s 6s 11
mph
1018.9mb 54f 56f
1:50pm 2.5ft 9s 6s 11 13 mph 1018.5mb 54f 58f
12:50pm 2.5ft 8s 6s 11 13 mph 1019mb 54f 57f
11:50am 2.5ft 8s 5s 13 16 mph 1019.3mb 54f 56f
10:50am 2.5ft 7s 5s 13 16 mph 1019.8mb 54f 55f
9:50am 2.5ft 7s 6s 11 13 mph 1020.3mb 53f 56f
8:50am 2.5ft 6s 6s 11
mph
1020.4mb 53f 57f
7:50am 2.5ft 7s 6s 9 11 mph 1020.7mb 53f 56f
6:50am 2.5ft 7s 6s 9 11 mph 1020.5mb 53f 56f
5:50am 2.5ft 7s 6s 9 11 mph 1020.5mb 53f 55f
4:50am 2.5ft 8s 6s 9
mph
1020.4mb 53f 55f
3:50am 2.5ft 7s 6s 9
mph
1020.1mb 53f 56f
2:50am 2.5ft 8s 6s 11 13 mph 1020.6mb 53f 56f
1:50am 2.5ft 8s 6s 9 11 mph 1021mb 53f 56f